sensor_id;sensor_type;location;lat;lon;timestamp;pressure;altitude;pressure_sealevel;temperature;humidity
71485;BME280;59300;52.074;4.758;2023-01-31T00:01:38;102519.16;;;1.75;100.00
71485;BME280;59300;52.074;4.758;2023-01-31T00:04:40;102524.22;;;1.71;100.00
71485;BME280;59300;52.074;4.758;2023-01-31T00:07:42;102523.28;;;1.68;100.00
71485;BME280;59300;52.074;4.758;2023-01-31T00:10:43;102524.88;;;1.65;100.00
71485;BME280;59300;52.074;4.758;2023-01-31T00:13:45;102518.22;;;1.73;100.00
71485;BME280;59300;52.074;4.758;2023-01-31T00:16:47;102519.41;;;1.81;100.00
71485;BME280;59300;52.074;4.758;2023-01-31T00:19:48;102516.59;;;1.77;100.00
71485;BME280;59300;52.074;4.758;2023-01-31T00:22:50;102492.03;;;1.93;100.00
71485;BME280;59300;52.074;4.758;2023-01-31T00:25:51;102490.44;;;1.98;100.00
71485;BME280;59300;52.074;4.758;2023-01-31T00:28:54;102473.00;;;2.21;100.00
71485;BME280;59300;52.074;4.758;2023-01-31T00:31:56;102468.56;;;2.19;100.00
71485;BME280;59300;52.074;4.758;2023-01-31T00:34:57;102458.16;;;2.19;100.00
71485;BME280;59300;52.074;4.758;2023-01-31T00:37:59;102447.41;;;2.09;100.00
71485;BME280;59300;52.074;4.758;2023-01-31T00:41:01;102439.09;;;2.20;100.00
71485;BME280;59300;52.074;4.758;2023-01-31T00:44:03;102433.56;;;2.10;100.00
71485;BME280;59300;52.074;4.758;2023-01-31T00:47:05;102433.16;;;1.98;100.00
71485;BME280;59300;52.074;4.758;2023-01-31T00:50:08;102423.13;;;2.10;100.00
71485;BME280;59300;52.074;4.758;2023-01-31T00:53:10;102416.38;;;2.15;100.00
71485;BME280;59300;52.074;4.758;2023-01-31T00:56:14;102409.28;;;2.11;100.00
71485;BME280;59300;52.074;4.758;2023-01-31T00:59:16;102419.69;;;2.11;100.00
71485;BME280;59300;52.074;4.758;2023-01-31T01:02:17;102409.09;;;2.05;100.00
71485;BME280;59300;52.074;4.758;2023-01-31T01:05:19;102417.84;;;2.07;100.00
71485;BME280;59300;52.074;4.758;2023-01-31T01:08:21;102418.31;;;1.95;100.00
71485;BME280;59300;52.074;4.758;2023-01-31T01:11:26;102412.13;;;1.92;100.00
71485;BME280;59300;52.074;4.758;2023-01-31T01:14:28;102408.84;;;1.97;100.00
71485;BME280;59300;52.074;4.758;2023-01-31T01:17:29;102405.75;;;2.09;100.00
71485;BME280;59300;52.074;4.758;2023-01-31T01:20:33;102402.78;;;2.26;100.00
71485;BME280;59300;52.074;4.758;2023-01-31T01:23:36;102404.06;;;2.11;100.00
71485;BME280;59300;52.074;4.758;2023-01-31T01:26:38;102400.38;;;2.05;100.00
71485;BME280;59300;52.074;4.758;2023-01-31T01:29:39;102387.94;;;1.96;100.00
71485;BME280;59300;52.074;4.758;2023-01-31T01:32:41;102399.94;;;1.91;100.00
71485;BME280;59300;52.074;4.758;2023-01-31T01:35:42;102403.56;;;1.96;100.00
71485;BME280;59300;52.074;4.758;2023-01-31T01:38:44;102405.94;;;2.15;100.00
71485;BME280;59300;52.074;4.758;2023-01-31T01:41:46;102413.78;;;2.15;100.00
71485;BME280;59300;52.074;4.758;2023-01-31T01:44:52;102418.28;;;2.21;100.00
71485;BME280;59300;52.074;4.758;2023-01-31T01:47:58;102425.53;;;2.30;100.00
71485;BME280;59300;52.074;4.758;2023-01-31T01:51:03;102426.75;;;2.41;100.00
71485;BME280;59300;52.074;4.758;2023-01-31T01:54:12;102426.28;;;2.55;100.00
71485;BME280;59300;52.074;4.758;2023-01-31T01:57:21;102435.28;;;2.65;100.00
71485;BME280;59300;52.074;4.758;2023-01-31T02:00:27;102424.06;;;2.67;100.00
71485;BME280;59300;52.074;4.758;2023-01-31T02:03:29;102415.09;;;2.88;100.00
71485;BME280;59300;52.074;4.758;2023-01-31T02:06:34;102425.00;;;3.00;100.00
71485;BME280;59300;52.074;4.758;2023-01-31T02:09:59;102422.03;;;3.18;100.00
71485;BME280;59300;52.074;4.758;2023-01-31T02:13:02;102417.75;;;3.20;100.00
71485;BME280;59300;52.074;4.758;2023-01-31T02:16:04;102417.88;;;3.25;100.00
71485;BME280;59300;52.074;4.758;2023-01-31T02:19:14;102418.88;;;3.30;100.00
71485;BME280;59300;52.074;4.758;2023-01-31T02:22:42;102420.84;;;3.38;100.00
71485;BME280;59300;52.074;4.758;2023-01-31T02:25:48;102418.75;;;3.57;100.00
71485;BME280;59300;52.074;4.758;2023-01-31T02:29:09;102416.84;;;3.51;100.00
71485;BME280;59300;52.074;4.758;2023-01-31T02:45:35;102400.16;;;3.45;100.00
71485;BME280;59300;52.074;4.758;2023-01-31T02:48:53;102402.59;;;3.38;100.00
71485;BME280;59300;52.074;4.758;2023-01-31T02:52:02;102406.97;;;3.40;100.00
71485;BME280;59300;52.074;4.758;2023-01-31T02:55:23;102392.31;;;3.45;100.00
71485;BME280;59300;52.074;4.758;2023-01-31T02:58:30;102387.25;;;3.51;100.00
71485;BME280;59300;52.074;4.758;2023-01-31T03:01:46;102384.84;;;3.59;100.00
71485;BME280;59300;52.074;4.758;2023-01-31T03:04:49;102384.13;;;3.66;100.00
71485;BME280;59300;52.074;4.758;2023-01-31T03:07:56;102373.75;;;3.67;100.00
71485;BME280;59300;52.074;4.758;2023-01-31T03:11:03;102379.00;;;3.69;100.00
71485;BME280;59300;52.074;4.758;2023-01-31T03:14:29;102379.72;;;3.63;100.00
71485;BME280;59300;52.074;4.758;2023-01-31T03:21:22;102379.19;;;3.77;100.00
71485;BME280;59300;52.074;4.758;2023-01-31T03:24:25;102378.56;;;3.87;100.00
71485;BME280;59300;52.074;4.758;2023-01-31T03:27:28;102374.44;;;3.95;100.00
71485;BME280;59300;52.074;4.758;2023-01-31T03:33:51;102365.31;;;3.79;100.00
71485;BME280;59300;52.074;4.758;2023-01-31T03:36:58;102361.97;;;3.85;100.00
71485;BME280;59300;52.074;4.758;2023-01-31T03:40:20;102361.84;;;3.79;100.00
71485;BME280;59300;52.074;4.758;2023-01-31T03:43:30;102359.22;;;3.77;100.00
71485;BME280;59300;52.074;4.758;2023-01-31T03:46:39;102361.84;;;3.79;100.00
71485;BME280;59300;52.074;4.758;2023-01-31T03:49:44;102356.53;;;3.76;100.00
71485;BME280;59300;52.074;4.758;2023-01-31T03:53:17;102345.97;;;3.69;100.00
71485;BME280;59300;52.074;4.758;2023-01-31T03:56:27;102343.06;;;3.59;100.00
71485;BME280;59300;52.074;4.758;2023-01-31T03:59:36;102349.09;;;3.56;100.00
71485;BME280;59300;52.074;4.758;2023-01-31T04:02:41;102354.44;;;3.61;100.00
71485;BME280;59300;52.074;4.758;2023-01-31T04:05:44;102353.63;;;3.63;100.00
71485;BME280;59300;52.074;4.758;2023-01-31T04:08:46;102353.16;;;3.80;100.00
71485;BME280;59300;52.074;4.758;2023-01-31T04:11:49;102344.88;;;3.96;100.00
71485;BME280;59300;52.074;4.758;2023-01-31T04:14:51;102335.44;;;4.03;100.00
71485;BME280;59300;52.074;4.758;2023-01-31T04:17:52;102334.69;;;4.09;100.00
71485;BME280;59300;52.074;4.758;2023-01-31T04:20:54;102326.06;;;4.13;100.00
71485;BME280;59300;52.074;4.758;2023-01-31T04:23:56;102325.19;;;4.12;100.00
71485;BME280;59300;52.074;4.758;2023-01-31T04:26:57;102326.97;;;4.13;100.00
71485;BME280;59300;52.074;4.758;2023-01-31T04:29:59;102327.97;;;4.20;100.00
71485;BME280;59300;52.074;4.758;2023-01-31T04:33:00;102324.72;;;4.30;100.00
71485;BME280;59300;52.074;4.758;2023-01-31T04:36:02;102311.66;;;4.32;100.00
71485;BME280;59300;52.074;4.758;2023-01-31T04:39:04;102309.09;;;4.34;100.00
71485;BME280;59300;52.074;4.758;2023-01-31T04:42:06;102306.53;;;4.37;100.00
71485;BME280;59300;52.074;4.758;2023-01-31T04:45:07;102292.66;;;4.39;100.00
71485;BME280;59300;52.074;4.758;2023-01-31T04:48:09;102298.84;;;4.43;100.00
71485;BME280;59300;52.074;4.758;2023-01-31T04:51:11;102302.41;;;4.48;100.00
71485;BME280;59300;52.074;4.758;2023-01-31T04:54:12;102293.69;;;4.46;100.00
71485;BME280;59300;52.074;4.758;2023-01-31T04:57:14;102299.78;;;4.46;100.00
71485;BME280;59300;52.074;4.758;2023-01-31T05:00:16;102301.47;;;4.44;100.00
71485;BME280;59300;52.074;4.758;2023-01-31T05:03:18;102301.41;;;4.41;100.00
71485;BME280;59300;52.074;4.758;2023-01-31T05:06:19;102296.09;;;4.37;100.00
71485;BME280;59300;52.074;4.758;2023-01-31T05:09:21;102287.44;;;4.39;100.00
71485;BME280;59300;52.074;4.758;2023-01-31T05:12:22;102284.03;;;4.43;100.00
71485;BME280;59300;52.074;4.758;2023-01-31T05:15:24;102285.00;;;4.47;100.00
71485;BME280;59300;52.074;4.758;2023-01-31T05:18:26;102269.41;;;4.53;100.00
71485;BME280;59300;52.074;4.758;2023-01-31T05:21:27;102274.72;;;4.56;100.00
71485;BME280;59300;52.074;4.758;2023-01-31T05:24:30;102270.28;;;4.54;100.00
71485;BME280;59300;52.074;4.758;2023-01-31T05:27:33;102286.03;;;4.57;100.00
71485;BME280;59300;52.074;4.758;2023-01-31T05:30:34;102285.25;;;4.59;100.00
71485;BME280;59300;52.074;4.758;2023-01-31T05:33:36;102283.41;;;4.57;100.00
71485;BME280;59300;52.074;4.758;2023-01-31T05:36:38;102284.31;;;4.57;100.00
71485;BME280;59300;52.074;4.758;2023-01-31T05:39:39;102278.25;;;4.58;100.00
71485;BME280;59300;52.074;4.758;2023-01-31T05:42:41;102273.72;;;4.50;100.00
71485;BME280;59300;52.074;4.758;2023-01-31T05:45:43;102274.63;;;4.53;100.00
71485;BME280;59300;52.074;4.758;2023-01-31T05:48:45;102277.31;;;4.56;100.00
71485;BME280;59300;52.074;4.758;2023-01-31T05:51:46;102275.50;;;4.54;100.00
71485;BME280;59300;52.074;4.758;2023-01-31T05:54:48;102275.63;;;4.58;100.00
71485;BME280;59300;52.074;4.758;2023-01-31T05:57:52;102278.19;;;4.57;100.00
71485;BME280;59300;52.074;4.758;2023-01-31T06:00:54;102273.00;;;4.58;100.00
71485;BME280;59300;52.074;4.758;2023-01-31T06:03:56;102267.56;;;4.49;100.00
71485;BME280;59300;52.074;4.758;2023-01-31T06:06:58;102255.31;;;4.45;100.00
71485;BME280;59300;52.074;4.758;2023-01-31T06:10:00;102248.31;;;4.44;100.00
71485;BME280;59300;52.074;4.758;2023-01-31T06:13:02;102249.28;;;4.49;100.00
71485;BME280;59300;52.074;4.758;2023-01-31T06:16:04;102251.00;;;4.47;100.00
71485;BME280;59300;52.074;4.758;2023-01-31T06:19:06;102252.84;;;4.53;100.00
71485;BME280;59300;52.074;4.758;2023-01-31T06:22:08;102248.66;;;4.61;100.00
71485;BME280;59300;52.074;4.758;2023-01-31T06:25:09;102246.88;;;4.58;100.00
71485;BME280;59300;52.074;4.758;2023-01-31T06:28:11;102257.31;;;4.58;100.00
71485;BME280;59300;52.074;4.758;2023-01-31T06:31:12;102248.63;;;4.59;100.00
71485;BME280;59300;52.074;4.758;2023-01-31T06:34:24;102252.03;;;4.55;100.00
71485;BME280;59300;52.074;4.758;2023-01-31T06:37:25;102235.41;;;4.53;100.00
71485;BME280;59300;52.074;4.758;2023-01-31T06:40:27;102236.28;;;4.52;100.00
71485;BME280;59300;52.074;4.758;2023-01-31T06:43:29;102226.72;;;4.53;100.00
71485;BME280;59300;52.074;4.758;2023-01-31T06:46:31;102224.06;;;4.51;100.00
71485;BME280;59300;52.074;4.758;2023-01-31T06:49:33;102217.13;;;4.53;100.00
71485;BME280;59300;52.074;4.758;2023-01-31T06:52:34;102211.81;;;4.50;100.00
71485;BME280;59300;52.074;4.758;2023-01-31T06:55:37;102215.50;;;4.58;100.00
71485;BME280;59300;52.074;4.758;2023-01-31T06:58:38;102209.41;;;4.59;100.00
71485;BME280;59300;52.074;4.758;2023-01-31T07:01:40;102208.50;;;4.57;100.00
71485;BME280;59300;52.074;4.758;2023-01-31T07:04:41;102211.28;;;4.67;100.00
71485;BME280;59300;52.074;4.758;2023-01-31T07:07:43;102205.13;;;4.65;100.00
71485;BME280;59300;52.074;4.758;2023-01-31T07:10:47;102203.50;;;4.71;100.00
71485;BME280;59300;52.074;4.758;2023-01-31T07:13:48;102192.19;;;4.71;100.00
71485;BME280;59300;52.074;4.758;2023-01-31T07:16:50;102185.97;;;4.66;100.00
71485;BME280;59300;52.074;4.758;2023-01-31T07:19:52;102189.56;;;4.71;100.00
71485;BME280;59300;52.074;4.758;2023-01-31T07:22:55;102192.97;;;4.68;100.00
71485;BME280;59300;52.074;4.758;2023-01-31T07:25:57;102193.13;;;4.76;100.00
71485;BME280;59300;52.074;4.758;2023-01-31T07:28:58;102190.44;;;4.73;100.00
71485;BME280;59300;52.074;4.758;2023-01-31T07:32:00;102188.59;;;4.67;100.00
71485;BME280;59300;52.074;4.758;2023-01-31T07:35:01;102181.59;;;4.65;100.00
71485;BME280;59300;52.074;4.758;2023-01-31T07:38:03;102180.69;;;4.63;100.00
71485;BME280;59300;52.074;4.758;2023-01-31T07:41:04;102187.81;;;4.70;100.00
71485;BME280;59300;52.074;4.758;2023-01-31T07:44:06;102170.56;;;4.81;100.00
71485;BME280;59300;52.074;4.758;2023-01-31T07:47:08;102167.94;;;4.81;100.00
71485;BME280;59300;52.074;4.758;2023-01-31T07:50:10;102173.25;;;4.84;100.00
71485;BME280;59300;52.074;4.758;2023-01-31T07:53:11;102165.59;;;4.98;100.00
71485;BME280;59300;52.074;4.758;2023-01-31T07:56:15;102157.03;;;5.07;100.00
71485;BME280;59300;52.074;4.758;2023-01-31T07:59:17;102154.50;;;5.13;100.00
71485;BME280;59300;52.074;4.758;2023-01-31T08:02:18;102155.34;;;5.12;100.00
71485;BME280;59300;52.074;4.758;2023-01-31T08:05:20;102148.28;;;5.05;100.00
71485;BME280;59300;52.074;4.758;2023-01-31T08:08:22;102144.66;;;4.97;100.00
71485;BME280;59300;52.074;4.758;2023-01-31T08:11:24;102151.53;;;4.91;100.00
71485;BME280;59300;52.074;4.758;2023-01-31T08:14:25;102142.78;;;4.89;100.00
71485;BME280;59300;52.074;4.758;2023-01-31T08:17:27;102148.94;;;4.93;100.00
71485;BME280;59300;52.074;4.758;2023-01-31T08:20:28;102143.81;;;4.98;100.00
71485;BME280;59300;52.074;4.758;2023-01-31T08:23:30;102141.19;;;4.98;100.00
71485;BME280;59300;52.074;4.758;2023-01-31T08:26:32;102129.84;;;4.99;100.00
71485;BME280;59300;52.074;4.758;2023-01-31T08:29:34;102123.69;;;4.95;100.00
71485;BME280;59300;52.074;4.758;2023-01-31T08:32:36;102132.25;;;4.83;100.00
71485;BME280;59300;52.074;4.758;2023-01-31T08:35:37;102127.78;;;4.78;100.00
71485;BME280;59300;52.074;4.758;2023-01-31T08:38:39;102111.13;;;4.74;100.00
71485;BME280;59300;52.074;4.758;2023-01-31T08:41:41;102098.91;;;4.71;100.00
71485;BME280;59300;52.074;4.758;2023-01-31T08:44:43;102125.06;;;4.73;100.00
71485;BME280;59300;52.074;4.758;2023-01-31T08:47:44;102136.69;;;4.90;100.00
71485;BME280;59300;52.074;4.758;2023-01-31T08:50:46;102136.91;;;5.04;100.00
71485;BME280;59300;52.074;4.758;2023-01-31T08:53:48;102143.22;;;5.17;100.00
71485;BME280;59300;52.074;4.758;2023-01-31T08:56:49;102138.97;;;5.24;100.00
71485;BME280;59300;52.074;4.758;2023-01-31T08:59:51;102143.38;;;5.27;100.00
71485;BME280;59300;52.074;4.758;2023-01-31T09:02:57;102149.56;;;5.32;100.00
71485;BME280;59300;52.074;4.758;2023-01-31T09:06:00;102139.91;;;5.28;100.00
71485;BME280;59300;52.074;4.758;2023-01-31T09:09:02;102131.97;;;5.21;100.00
71485;BME280;59300;52.074;4.758;2023-01-31T09:12:04;102131.25;;;5.32;100.00
71485;BME280;59300;52.074;4.758;2023-01-31T09:15:06;102131.41;;;5.44;100.00
71485;BME280;59300;52.074;4.758;2023-01-31T09:18:07;102116.66;;;5.51;100.00
71485;BME280;59300;52.074;4.758;2023-01-31T09:21:19;102107.16;;;5.61;100.00
71485;BME280;59300;52.074;4.758;2023-01-31T09:24:21;102093.44;;;5.79;100.00
71485;BME280;59300;52.074;4.758;2023-01-31T09:27:22;102076.16;;;5.95;100.00
71485;BME280;59300;52.074;4.758;2023-01-31T09:30:24;102094.69;;;6.07;100.00
71485;BME280;59300;52.074;4.758;2023-01-31T09:33:25;102084.19;;;6.07;100.00
71485;BME280;59300;52.074;4.758;2023-01-31T09:36:27;102079.66;;;5.94;100.00
71485;BME280;59300;52.074;4.758;2023-01-31T09:39:29;102062.06;;;5.87;100.00
71485;BME280;59300;52.074;4.758;2023-01-31T09:42:34;102076.84;;;5.77;100.00
71485;BME280;59300;52.074;4.758;2023-01-31T09:45:38;102075.94;;;5.73;100.00
71485;BME280;59300;52.074;4.758;2023-01-31T09:48:46;102089.97;;;5.81;100.00
71485;BME280;59300;52.074;4.758;2023-01-31T09:52:02;102078.72;;;5.90;100.00
71485;BME280;59300;52.074;4.758;2023-01-31T09:55:05;102084.97;;;6.00;100.00
71485;BME280;59300;52.074;4.758;2023-01-31T09:58:25;102078.00;;;6.02;100.00
71485;BME280;59300;52.074;4.758;2023-01-31T10:01:36;102078.06;;;6.05;100.00
71485;BME280;59300;52.074;4.758;2023-01-31T10:04:56;102097.34;;;6.10;100.00
71485;BME280;59300;52.074;4.758;2023-01-31T10:11:21;102098.44;;;6.36;100.00
71485;BME280;59300;52.074;4.758;2023-01-31T10:14:34;102095.97;;;6.53;100.00
71485;BME280;59300;52.074;4.758;2023-01-31T10:17:39;102094.28;;;6.58;100.00
71485;BME280;59300;52.074;4.758;2023-01-31T10:27:45;102118.66;;;6.44;100.00
71485;BME280;59300;52.074;4.758;2023-01-31T10:37:57;102098.66;;;6.57;100.00
71485;BME280;59300;52.074;4.758;2023-01-31T10:41:05;102077.69;;;6.62;100.00
71485;BME280;59300;52.074;4.758;2023-01-31T10:44:21;102087.41;;;6.72;100.00
71485;BME280;59300;52.074;4.758;2023-01-31T10:47:31;102072.47;;;6.65;100.00
71485;BME280;59300;52.074;4.758;2023-01-31T10:57:25;102089.84;;;6.48;100.00
71485;BME280;59300;52.074;4.758;2023-01-31T11:00:29;102090.75;;;6.53;100.00
71485;BME280;59300;52.074;4.758;2023-01-31T11:03:31;102094.25;;;6.55;100.00
71485;BME280;59300;52.074;4.758;2023-01-31T11:06:33;102103.88;;;6.57;100.00
71485;BME280;59300;52.074;4.758;2023-01-31T11:09:40;102096.09;;;6.65;100.00
71485;BME280;59300;52.074;4.758;2023-01-31T11:12:57;102100.50;;;6.71;100.00
71485;BME280;59300;52.074;4.758;2023-01-31T11:16:00;102116.34;;;6.82;100.00
71485;BME280;59300;52.074;4.758;2023-01-31T11:19:14;102095.38;;;6.85;100.00
71485;BME280;59300;52.074;4.758;2023-01-31T11:22:29;102095.41;;;6.91;100.00
71485;BME280;59300;52.074;4.758;2023-01-31T11:25:32;102091.06;;;6.93;100.00
71485;BME280;59300;52.074;4.758;2023-01-31T11:28:38;102091.13;;;6.99;100.00
71485;BME280;59300;52.074;4.758;2023-01-31T11:31:41;102084.13;;;7.04;100.00
71485;BME280;59300;52.074;4.758;2023-01-31T11:35:04;102085.03;;;7.05;100.00
71485;BME280;59300;52.074;4.758;2023-01-31T11:41:32;102080.69;;;7.09;100.00
71485;BME280;59300;52.074;4.758;2023-01-31T11:44:33;102085.94;;;7.09;100.00
71485;BME280;59300;52.074;4.758;2023-01-31T11:47:42;102092.91;;;7.06;100.00
71485;BME280;59300;52.074;4.758;2023-01-31T11:50:51;102085.91;;;7.05;100.00
71485;BME280;59300;52.074;4.758;2023-01-31T11:53:55;102070.16;;;7.04;100.00
71485;BME280;59300;52.074;4.758;2023-01-31T11:56:58;102063.19;;;7.11;100.00
71485;BME280;59300;52.074;4.758;2023-01-31T12:00:04;102051.81;;;7.09;100.00
71485;BME280;59300;52.074;4.758;2023-01-31T12:03:14;102043.94;;;7.13;100.00
71485;BME280;59300;52.074;4.758;2023-01-31T12:06:35;102038.78;;;7.24;100.00
71485;BME280;59300;52.074;4.758;2023-01-31T12:09:42;102043.09;;;7.20;100.00
71485;BME280;59300;52.074;4.758;2023-01-31T12:12:44;102058.84;;;7.20;100.00
71485;BME280;59300;52.074;4.758;2023-01-31T12:15:59;102029.16;;;7.28;100.00
71485;BME280;59300;52.074;4.758;2023-01-31T12:19:20;102041.41;;;7.30;100.00
71485;BME280;59300;52.074;4.758;2023-01-31T12:22:30;102040.56;;;7.34;100.00
71485;BME280;59300;52.074;4.758;2023-01-31T12:25:55;102036.19;;;7.36;100.00
71485;BME280;59300;52.074;4.758;2023-01-31T12:39:29;102024.91;;;7.59;100.00
71485;BME280;59300;52.074;4.758;2023-01-31T12:45:52;102024.94;;;7.72;100.00
71485;BME280;59300;52.074;4.758;2023-01-31T12:49:25;102017.06;;;7.72;100.00
71485;BME280;59300;52.074;4.758;2023-01-31T12:55:55;102006.56;;;7.84;100.00
71485;BME280;59300;52.074;4.758;2023-01-31T12:59:08;102002.19;;;7.86;100.00
71485;BME280;59300;52.074;4.758;2023-01-31T13:02:36;101996.94;;;7.89;100.00
71485;BME280;59300;52.074;4.758;2023-01-31T13:09:09;101996.97;;;8.05;100.00
71485;BME280;59300;52.074;4.758;2023-01-31T13:12:15;101979.41;;;7.91;100.00
71485;BME280;59300;52.074;4.758;2023-01-31T13:15:37;101988.19;;;7.93;100.00
71485;BME280;59300;52.074;4.758;2023-01-31T13:18:42;101995.19;;;8.13;100.00
71485;BME280;59300;52.074;4.758;2023-01-31T13:21:49;101985.56;;;8.18;100.00
71485;BME280;59300;52.074;4.758;2023-01-31T13:25:27;101997.84;;;8.19;100.00
71485;BME280;59300;52.074;4.758;2023-01-31T13:28:35;102004.84;;;8.39;100.00
71485;BME280;59300;52.074;4.758;2023-01-31T13:35:24;101997.88;;;8.38;100.00
71485;BME280;59300;52.074;4.758;2023-01-31T13:38:34;102000.50;;;8.35;100.00
71485;BME280;59300;52.074;4.758;2023-01-31T13:41:36;102012.78;;;8.48;100.00
71485;BME280;59300;52.074;4.758;2023-01-31T13:44:37;102007.50;;;8.33;100.00
71485;BME280;59300;52.074;4.758;2023-01-31T13:47:53;102010.13;;;8.26;100.00
71485;BME280;59300;52.074;4.758;2023-01-31T13:51:02;102011.88;;;8.23;100.00
71485;BME280;59300;52.074;4.758;2023-01-31T13:54:42;102030.28;;;8.13;100.00
71485;BME280;59300;52.074;4.758;2023-01-31T13:57:43;102027.66;;;8.12;100.00
71485;BME280;59300;52.074;4.758;2023-01-31T14:00:49;102046.06;;;8.27;100.00
71485;BME280;59300;52.074;4.758;2023-01-31T14:04:19;102035.53;;;8.18;100.00
71485;BME280;59300;52.074;4.758;2023-01-31T14:07:21;102056.59;;;8.34;100.00
71485;BME280;59300;52.074;4.758;2023-01-31T14:10:25;102046.06;;;8.30;100.00
71485;BME280;59300;52.074;4.758;2023-01-31T14:16:41;102060.13;;;8.36;100.00
71485;BME280;59300;52.074;4.758;2023-01-31T14:23:26;102055.69;;;8.33;100.00
71485;BME280;59300;52.074;4.758;2023-01-31T14:26:33;102063.59;;;8.32;100.00
71485;BME280;59300;52.074;4.758;2023-01-31T14:29:41;102064.47;;;8.27;100.00
71485;BME280;59300;52.074;4.758;2023-01-31T14:32:46;102068.00;;;8.31;100.00
71485;BME280;59300;52.074;4.758;2023-01-31T14:39:42;102070.59;;;8.26;100.00
71485;BME280;59300;52.074;4.758;2023-01-31T14:42:51;102074.09;;;8.25;100.00
71485;BME280;59300;52.074;4.758;2023-01-31T14:49:37;102086.41;;;8.42;100.00
71485;BME280;59300;52.074;4.758;2023-01-31T14:56:40;102081.06;;;7.97;100.00
71485;BME280;59300;52.074;4.758;2023-01-31T15:00:20;102077.56;;;7.98;100.00
71485;BME280;59300;52.074;4.758;2023-01-31T15:03:29;102082.84;;;7.96;100.00
71485;BME280;59300;52.074;4.758;2023-01-31T15:06:34;102086.38;;;8.08;100.00
71485;BME280;59300;52.074;4.758;2023-01-31T15:09:38;102096.88;;;8.06;100.00
71485;BME280;59300;52.074;4.758;2023-01-31T15:12:55;102086.34;;;7.98;100.00
71485;BME280;59300;52.074;4.758;2023-01-31T15:15:57;102086.34;;;7.95;100.00
71485;BME280;59300;52.074;4.758;2023-01-31T15:19:05;102086.28;;;7.89;100.00
71485;BME280;59300;52.074;4.758;2023-01-31T15:22:09;102093.31;;;7.87;100.00
71485;BME280;59300;52.074;4.758;2023-01-31T15:25:35;102095.97;;;7.92;100.00
71485;BME280;59300;52.074;4.758;2023-01-31T15:28:42;102088.06;;;7.87;100.00
71485;BME280;59300;52.074;4.758;2023-01-31T15:31:46;102100.31;;;7.85;100.00
71485;BME280;59300;52.074;4.758;2023-01-31T15:34:55;102105.56;;;7.85;100.00
71485;BME280;59300;52.074;4.758;2023-01-31T15:38:23;102124.88;;;7.87;100.00
71485;BME280;59300;52.074;4.758;2023-01-31T15:44:35;102140.59;;;7.86;100.00
71485;BME280;59300;52.074;4.758;2023-01-31T15:47:37;102110.81;;;7.80;100.00
71485;BME280;59300;52.074;4.758;2023-01-31T15:50:54;102123.13;;;7.92;100.00
71485;BME280;59300;52.074;4.758;2023-01-31T15:54:04;102126.56;;;7.79;100.00
71485;BME280;59300;52.074;4.758;2023-01-31T15:57:10;102123.00;;;7.64;100.00
71485;BME280;59300;52.074;4.758;2023-01-31T16:00:21;102142.25;;;7.56;100.00
71485;BME280;59300;52.074;4.758;2023-01-31T16:03:27;102145.69;;;7.48;100.00
71485;BME280;59300;52.074;4.758;2023-01-31T16:06:33;102155.31;;;7.51;100.00
71485;BME280;59300;52.074;4.758;2023-01-31T16:09:36;102166.69;;;7.47;100.00
71485;BME280;59300;52.074;4.758;2023-01-31T16:12:41;102178.91;;;7.42;100.00
71485;BME280;59300;52.074;4.758;2023-01-31T16:15:44;102174.56;;;7.45;100.00
71485;BME280;59300;52.074;4.758;2023-01-31T16:18:57;102184.16;;;7.42;100.00
71485;BME280;59300;52.074;4.758;2023-01-31T16:21:59;102191.13;;;7.35;100.00
71485;BME280;59300;52.074;4.758;2023-01-31T16:25:02;102177.94;;;7.26;100.00
71485;BME280;59300;52.074;4.758;2023-01-31T16:28:08;102177.84;;;7.13;100.00
71485;BME280;59300;52.074;4.758;2023-01-31T16:31:14;102176.84;;;7.00;100.00
71485;BME280;59300;52.074;4.758;2023-01-31T16:34:32;102174.16;;;6.89;100.00
71485;BME280;59300;52.074;4.758;2023-01-31T16:37:37;102175.84;;;6.83;100.00
71485;BME280;59300;52.074;4.758;2023-01-31T16:40:44;102171.38;;;6.72;100.00
71485;BME280;59300;52.074;4.758;2023-01-31T16:43:49;102155.47;;;6.57;100.00
71485;BME280;59300;52.074;4.758;2023-01-31T16:46:52;102154.59;;;6.53;100.00
71485;BME280;59300;52.074;4.758;2023-01-31T16:53:30;102162.25;;;6.33;100.00
71485;BME280;59300;52.074;4.758;2023-01-31T16:56:32;102163.09;;;6.34;100.00
71485;BME280;59300;52.074;4.758;2023-01-31T17:02:39;102169.25;;;6.37;100.00
71485;BME280;59300;52.074;4.758;2023-01-31T17:05:42;102168.22;;;6.21;100.00
71485;BME280;59300;52.074;4.758;2023-01-31T17:08:47;102179.59;;;6.23;100.00
71485;BME280;59300;52.074;4.758;2023-01-31T17:11:49;102170.88;;;6.23;100.00
71485;BME280;59300;52.074;4.758;2023-01-31T17:14:54;102184.69;;;6.12;100.00
71485;BME280;59300;52.074;4.758;2023-01-31T17:17:55;102174.13;;;6.03;100.00
71485;BME280;59300;52.074;4.758;2023-01-31T17:20:57;102170.72;;;6.10;100.00
71485;BME280;59300;52.074;4.758;2023-01-31T17:23:58;102181.06;;;6.01;100.00
71485;BME280;59300;52.074;4.758;2023-01-31T17:27:00;102177.41;;;5.90;100.00
71485;BME280;59300;52.074;4.758;2023-01-31T17:30:02;102176.50;;;5.84;100.00
71485;BME280;59300;52.074;4.758;2023-01-31T17:33:03;102168.53;;;5.78;100.00
71485;BME280;59300;52.074;4.758;2023-01-31T17:36:07;102168.38;;;5.66;100.00
71485;BME280;59300;52.074;4.758;2023-01-31T17:39:09;102164.78;;;5.58;100.00
71485;BME280;59300;52.074;4.758;2023-01-31T17:42:16;102171.63;;;5.49;100.00
71485;BME280;59300;52.074;4.758;2023-01-31T17:45:18;102168.13;;;5.47;100.00
71485;BME280;59300;52.074;4.758;2023-01-31T17:48:20;102181.97;;;5.40;100.00
71485;BME280;59300;52.074;4.758;2023-01-31T17:51:27;102187.97;;;5.33;100.00